createdAt,value
2019-05-06T00:02:13.838Z,75.95
2019-05-06T00:07:16.990Z,74.93
2019-05-06T00:12:19.932Z,72.63
2019-05-06T00:17:23.945Z,72.74
2019-05-06T00:22:27.234Z,71.05
2019-05-06T00:27:56.109Z,70.43
2019-05-06T00:32:59.175Z,71.28
2019-05-06T00:38:04.382Z,70.38
2019-05-06T00:43:08.615Z,69.76
2019-05-06T00:48:13.854Z,68.95
2019-05-06T00:53:18.783Z,68.52
2019-05-06T00:58:23.779Z,68.71
2019-05-06T01:03:28.690Z,68.47
2019-05-06T01:08:31.951Z,67.78
2019-05-06T01:13:40.540Z,67.43
2019-05-06T01:18:43.610Z,66.18
2019-05-06T01:23:46.848Z,67.33
2019-05-06T01:28:50.369Z,64.98
2019-05-06T01:33:53.668Z,62.74
2019-05-06T01:39:31.619Z,62.15
2019-05-06T01:44:34.581Z,62.21
2019-05-06T01:49:37.559Z,61.06
2019-05-06T01:54:40.610Z,62.49
2019-05-06T01:59:44.372Z,60.71
2019-05-06T02:04:47.485Z,61.13
2019-05-06T02:09:50.523Z,61.66
2019-05-06T02:14:54.346Z,62.05
2019-05-06T02:19:57.427Z,61.64
2019-05-06T02:25:05.980Z,62.32
2019-05-06T02:30:25.211Z,64.34
2019-05-06T02:35:41.509Z,64.26
2019-05-06T02:40:44.536Z,64.81
2019-05-06T02:45:47.489Z,64.96
2019-05-06T02:51:03.864Z,66.51
2019-05-06T02:56:07.285Z,67.18
2019-05-06T03:01:13.392Z,66.41
2019-05-06T03:06:15.413Z,66.10
2019-05-06T03:11:18.456Z,66.97
2019-05-06T03:16:23.783Z,66.49
2019-05-06T03:21:45.063Z,66.45
2019-05-06T03:26:56.136Z,67.14
2019-05-06T03:31:56.357Z,66.91
2019-05-06T03:36:59.726Z,67.78
2019-05-06T03:42:04.675Z,68.47
2019-05-06T03:47:27.165Z,67.41
2019-05-06T03:52:30.157Z,67.72
2019-05-06T03:57:36.173Z,68.25
2019-05-06T04:02:39.912Z,68.55
2019-05-06T04:07:46.109Z,67.08
2019-05-06T04:12:53.552Z,67.61
2019-05-06T04:17:59.911Z,67.92
2019-05-06T04:23:23.527Z,65.18
2019-05-06T04:28:29.289Z,66.15
2019-05-06T04:33:33.517Z,65.62
2019-05-06T04:38:37.047Z,64.99
2019-05-06T04:43:40.421Z,64.56
2019-05-06T04:48:45.397Z,63.59
2019-05-06T04:53:48.454Z,63.07
2019-05-06T04:58:53.910Z,63.58
2019-05-06T05:03:56.878Z,61.28
2019-05-06T05:09:02.570Z,59.74
2019-05-06T05:14:25.940Z,60.69
2019-05-06T05:19:32.684Z,61.46
2019-05-06T05:24:37.866Z,61.79
2019-05-06T05:29:42.367Z,61.19
2019-05-06T05:34:45.818Z,60.61
2019-05-06T05:39:49.300Z,60.04
2019-05-06T05:44:53.467Z,60.36
2019-05-06T05:50:22.823Z,59.88
2019-05-06T05:55:26.561Z,58.80
2019-05-06T06:00:32.472Z,58.57
2019-05-06T06:05:35.057Z,57.80
2019-05-06T06:10:49.536Z,58.03
2019-05-06T06:16:02.882Z,57.65
2019-05-06T06:21:32.027Z,58.03
2019-05-06T06:26:34.983Z,57.00
2019-05-06T06:32:09.374Z,56.52
2019-05-06T06:37:33.054Z,56.83
2019-05-06T06:42:36.028Z,56.39
2019-05-06T06:47:39.180Z,56.44
2019-05-06T06:52:42.931Z,56.23
2019-05-06T06:58:22.600Z,56.09
2019-05-06T07:03:37.772Z,54.78
2019-05-06T07:08:42.615Z,54.05
2019-05-06T07:13:53.244Z,54.57
2019-05-06T07:18:56.616Z,54.44
2019-05-06T07:23:59.578Z,53.54
2019-05-06T07:29:03.901Z,55.70
2019-05-06T07:34:07.728Z,54.30
2019-05-06T07:39:14.750Z,52.32
2019-05-06T07:44:33.339Z,49.89
2019-05-06T07:49:36.560Z,48.62
2019-05-06T07:54:39.572Z,48.66
2019-05-06T07:59:43.009Z,48.64
2019-05-06T08:04:46.156Z,47.69
2019-05-06T08:09:49.120Z,49.23
2019-05-06T08:14:52.501Z,49.62
2019-05-06T08:19:55.872Z,47.65
2019-05-06T08:24:58.965Z,47.89
2019-05-06T08:30:02.624Z,47.23
2019-05-06T08:35:06.182Z,48.29
2019-05-06T08:40:12.000Z,46.84
2019-05-06T08:45:15.501Z,46.23
2019-05-06T08:50:43.902Z,46.89
2019-05-06T08:55:47.563Z,46.83
2019-05-06T09:00:57.615Z,45.38
2019-05-06T09:06:02.998Z,44.10
2019-05-06T09:11:05.586Z,43.42
2019-05-06T09:16:08.673Z,43.98
2019-05-06T09:21:12.268Z,44.08
2019-05-06T09:26:18.287Z,42.58
2019-05-06T09:31:24.931Z,42.77
2019-05-06T09:36:39.824Z,43.25
2019-05-06T09:41:32.767Z,43.82
2019-05-06T09:46:35.786Z,44.13
2019-05-06T09:51:39.456Z,43.87
2019-05-06T09:56:47.740Z,43.98
2019-05-06T10:01:52.855Z,44.81
2019-05-06T10:06:59.778Z,45.79
2019-05-06T10:12:02.045Z,45.24
2019-05-06T10:17:05.549Z,44.07
2019-05-06T10:22:08.521Z,44.68
2019-05-06T10:27:12.084Z,45.40
2019-05-06T10:32:27.064Z,45.60
2019-05-06T10:37:42.244Z,46.54
2019-05-06T10:43:13.215Z,45.36
2019-05-06T10:48:16.182Z,44.29
2019-05-06T10:53:23.632Z,45.92
2019-05-06T10:58:26.762Z,45.06
2019-05-06T11:03:29.732Z,46.00
2019-05-06T11:08:32.842Z,45.85
2019-05-06T11:13:36.012Z,47.01
2019-05-06T11:18:39.098Z,45.76
2019-05-06T11:23:42.351Z,45.48
2019-05-06T11:28:49.326Z,45.65
2019-05-06T11:34:00.166Z,45.85
2019-05-06T11:39:05.268Z,44.79
2019-05-06T11:44:09.178Z,43.75
2019-05-06T11:49:12.625Z,43.73
2019-05-06T11:54:20.337Z,44.57
2019-05-06T11:59:22.692Z,44.70
2019-05-06T12:04:26.087Z,41.47
2019-05-06T12:09:29.146Z,41.02
2019-05-06T12:14:32.129Z,41.76
2019-05-06T12:19:35.128Z,41.49
2019-05-06T12:24:38.087Z,39.22
2019-05-06T12:29:42.857Z,39.60
2019-05-06T12:34:46.208Z,40.11
2019-05-06T12:39:53.558Z,41.17
2019-05-06T12:45:14.886Z,42.21
2019-05-06T12:50:18.024Z,39.38
2019-05-06T12:55:25.207Z,40.68
2019-05-06T13:00:30.829Z,40.95
2019-05-06T13:05:33.820Z,41.84
2019-05-06T13:10:36.773Z,45.02
2019-05-06T13:15:39.897Z,41.47
2019-05-06T13:20:50.077Z,43.45
2019-05-06T13:25:48.046Z,41.94
2019-05-06T13:30:53.174Z,40.76
2019-05-06T13:35:56.501Z,39.96
2019-05-06T13:40:59.874Z,39.31
2019-05-06T13:46:07.388Z,41.03
2019-05-06T13:51:14.279Z,39.02
2019-05-06T13:56:16.702Z,39.39
2019-05-06T14:01:22.933Z,39.65
2019-05-06T14:06:26.540Z,38.22
2019-05-06T14:11:29.886Z,38.85
2019-05-06T14:16:33.572Z,39.88
2019-05-06T14:21:36.675Z,39.50
2019-05-06T14:26:45.753Z,39.36
2019-05-06T14:31:52.490Z,38.86
2019-05-06T14:36:54.853Z,38.98
2019-05-06T14:41:57.830Z,39.46
2019-05-06T14:47:09.227Z,41.09
2019-05-06T14:52:13.158Z,39.34
2019-05-06T14:57:17.594Z,38.96
2019-05-06T15:02:26.083Z,40.13
2019-05-06T15:07:29.010Z,38.31
2019-05-06T15:12:33.436Z,39.78
2019-05-06T15:17:36.975Z,39.64
2019-05-06T15:22:42.062Z,40.00
2019-05-06T15:27:45.294Z,40.10
2019-05-06T15:32:48.294Z,39.02
2019-05-06T15:38:02.775Z,39.53
2019-05-06T15:43:05.865Z,38.77
2019-05-06T15:48:08.942Z,38.51
2019-05-06T15:53:12.631Z,39.14
2019-05-06T15:58:15.768Z,38.64
2019-05-06T16:03:18.770Z,39.37
2019-05-06T16:08:24.234Z,38.93
2019-05-06T16:13:26.830Z,39.97
2019-05-06T16:18:29.837Z,39.41
2019-05-06T16:23:42.312Z,37.81
2019-05-06T16:28:45.565Z,39.31
2019-05-06T16:33:48.647Z,39.16
2019-05-06T16:38:52.556Z,39.95
2019-05-06T16:43:57.340Z,40.21
2019-05-06T16:49:02.307Z,39.83
2019-05-06T16:54:05.284Z,40.61
2019-05-06T16:59:08.435Z,39.65
2019-05-06T17:04:19.583Z,40.23
2019-05-06T17:09:27.038Z,42.02
2019-05-06T17:14:27.437Z,42.10
2019-05-06T17:19:32.377Z,44.10
2019-05-06T17:24:35.588Z,43.43
2019-05-06T17:29:55.467Z,43.18
2019-05-06T17:34:58.684Z,44.64
2019-05-06T17:40:07.960Z,45.17
2019-05-06T17:45:25.914Z,43.98
2019-05-06T17:50:28.845Z,44.28
2019-05-06T17:55:32.795Z,44.05
2019-05-06T18:00:36.115Z,44.02
2019-05-06T18:05:39.108Z,44.43
2019-05-06T18:10:42.722Z,45.17
2019-05-06T18:15:45.968Z,45.73
2019-05-06T18:20:48.990Z,46.94
2019-05-06T18:25:53.025Z,47.38
2019-05-06T18:30:56.228Z,47.19
2019-05-06T18:35:59.279Z,48.69
2019-05-06T18:41:02.363Z,49.41
2019-05-06T18:46:05.402Z,49.46
2019-05-06T18:51:08.605Z,50.11
2019-05-06T18:56:12.738Z,55.50
2019-05-06T19:01:15.956Z,54.59
2019-05-06T19:06:19.076Z,52.87
2019-05-06T19:11:22.419Z,52.95
2019-05-06T19:16:25.693Z,53.31
2019-05-06T19:21:28.963Z,53.70
2019-05-06T19:26:32.730Z,53.78
2019-05-06T19:31:36.152Z,57.00
2019-05-06T19:36:39.161Z,55.71
2019-05-06T19:41:42.293Z,58.69
2019-05-06T19:46:45.336Z,56.65
2019-05-06T19:51:48.466Z,61.55
2019-05-06T19:56:52.720Z,57.01
2019-05-06T20:01:56.201Z,56.92
2019-05-06T20:07:05.244Z,54.63
2019-05-06T20:12:14.330Z,53.64
2019-05-06T20:17:17.348Z,55.05
2019-05-06T20:22:20.458Z,54.69
2019-05-06T20:27:23.685Z,51.45
2019-05-06T20:32:26.957Z,51.95
2019-05-06T20:37:30.092Z,51.31
2019-05-06T20:42:33.047Z,50.77
2019-05-06T20:47:36.598Z,50.42
2019-05-06T20:52:42.287Z,50.53
2019-05-06T20:57:44.993Z,51.35
2019-05-06T21:02:47.973Z,51.75
2019-05-06T21:07:52.623Z,53.23
2019-05-06T21:12:55.795Z,51.20
2019-05-06T21:18:03.602Z,51.90
2019-05-06T21:23:04.145Z,52.75
2019-05-06T21:28:07.181Z,52.54
2019-05-06T21:33:12.247Z,52.38
2019-05-06T21:38:15.191Z,52.20
2019-05-06T21:43:18.298Z,51.81
2019-05-06T21:48:22.221Z,53.19
2019-05-06T21:53:25.261Z,52.57
2019-05-06T21:58:28.236Z,52.88
2019-05-06T22:03:32.654Z,53.41
2019-05-06T22:08:35.906Z,53.97
2019-05-06T22:13:38.995Z,52.84
2019-05-06T22:18:43.226Z,53.18
2019-05-06T22:23:57.755Z,53.61
2019-05-06T22:29:02.059Z,54.02
2019-05-06T22:34:05.220Z,54.22
2019-05-06T22:39:08.235Z,54.22
2019-05-06T22:44:14.032Z,54.57
2019-05-06T22:49:16.033Z,54.90
2019-05-06T22:54:18.988Z,55.40
2019-05-06T22:59:25.003Z,56.09
2019-05-06T23:04:29.760Z,56.52
2019-05-06T23:09:32.776Z,56.40
2019-05-06T23:14:37.224Z,57.07
2019-05-06T23:19:42.623Z,57.08
2019-05-06T23:24:45.295Z,57.39
2019-05-06T23:29:48.646Z,56.89
2019-05-06T23:34:52.346Z,57.97
2019-05-06T23:40:52.164Z,57.04
2019-05-06T23:46:52.830Z,56.90
2019-05-06T23:52:52.013Z,57.30
2019-05-06T23:57:53.675Z,56.72
